Time;durP1;ratioP1;P1;durP2;ratioP2;P2;SDS_P1;SDS_P2;PMS_P1;PMS_P2;Temp;Humidity;BMP_temperature;BMP_pressure;BME280_temperature;BME280_humidity;BME280_pressure;Samples;Min_cycle;Max_cycle;Signal;HPM_P1;HPM_P2
2024/01/17 00:00:34;;;;;;;6.10;4.40;;;;;;;-5.25;74.39;99868.73;87258;272;135680;-76
2024/01/17 00:02:36;;;;;;;7.10;5.50;;;;;;;-5.29;74.53;99876.08;87478;272;26136;-74
2024/01/17 00:04:38;;;;;;;9.20;6.00;;;;;;;-5.32;74.53;99884.42;87488;271;136966;-75
2024/01/17 00:06:40;;;;;;;6.60;5.20;;;;;;;-5.36;74.49;99881.04;87468;268;23265;-74
2024/01/17 00:08:41;;;;;;;7.30;5.00;;;;;;;-5.41;74.40;99882.23;87405;275;136175;-73
2024/01/17 00:10:43;;;;;;;7.90;5.00;;;;;;;-5.45;74.37;99892.70;87490;279;22533;-74
2024/01/17 00:12:45;;;;;;;8.10;5.00;;;;;;;-5.50;74.06;99897.15;87390;268;136758;-75
2024/01/17 00:14:47;;;;;;;8.00;5.30;;;;;;;-5.51;73.95;99897.76;87464;269;22570;-74
2024/01/17 00:16:48;;;;;;;5.10;3.80;;;;;;;-5.55;73.84;99900.92;87468;272;135773;-75
2024/01/17 00:18:54;;;;;;;7.20;5.40;;;;;;;-5.63;73.91;99907.86;87504;272;22634;-75
2024/01/17 00:20:57;;;;;;;8.00;5.00;;;;;;;-5.71;74.22;99908.50;87477;272;135837;-74
2024/01/17 00:22:59;;;;;;;8.40;5.90;;;;;;;-5.81;74.46;99910.52;87610;271;22559;-74
2024/01/17 00:25:00;;;;;;;8.80;5.10;;;;;;;-5.89;74.63;99909.26;87620;271;135517;-74
2024/01/17 00:27:04;;;;;;;7.90;5.60;;;;;;;-5.95;74.93;99911.18;87507;275;22571;-75
2024/01/17 00:29:06;;;;;;;7.10;5.20;;;;;;;-6.03;75.75;99909.98;87331;276;136573;-76
2024/01/17 00:31:08;;;;;;;8.30;5.40;;;;;;;-6.07;76.09;99916.76;87407;276;24042;-75
2024/01/17 00:33:10;;;;;;;8.00;5.30;;;;;;;-5.96;75.90;99919.79;87499;273;137242;-75
2024/01/17 00:35:12;;;;;;;12.30;6.50;;;;;;;-5.85;75.92;99921.52;87468;271;22571;-74
2024/01/17 00:37:14;;;;;;;8.30;5.10;;;;;;;-5.77;75.76;99923.23;87456;267;136548;-74
2024/01/17 00:39:17;;;;;;;8.60;6.20;;;;;;;-5.70;75.23;99926.93;87631;267;22642;-73
2024/01/17 00:41:19;;;;;;;10.40;6.20;;;;;;;-5.63;75.35;99933.80;87443;271;152045;-73
2024/01/17 00:43:21;;;;;;;10.90;6.20;;;;;;;-5.57;75.23;99934.64;87736;279;22584;-74
2024/01/17 00:45:22;;;;;;;8.80;6.00;;;;;;;-5.53;74.88;99939.78;87361;279;137140;-73
2024/01/17 00:47:24;;;;;;;8.40;5.00;;;;;;;-5.58;74.81;99945.46;87632;279;24016;-74
2024/01/17 00:49:26;;;;;;;8.60;5.30;;;;;;;-5.64;74.73;99949.45;87451;267;138013;-74
2024/01/17 00:51:28;;;;;;;7.10;5.30;;;;;;;-5.67;74.86;99951.02;87422;267;25236;-74
2024/01/17 00:53:30;;;;;;;6.80;5.10;;;;;;;-5.69;74.68;99954.23;87422;271;136575;-75
2024/01/17 00:55:32;;;;;;;8.40;5.50;;;;;;;-5.67;74.64;99952.73;87516;267;22830;-74
2024/01/17 00:57:34;;;;;;;7.90;4.80;;;;;;;-5.72;74.61;99953.38;87447;271;136174;-75
2024/01/17 00:59:35;;;;;;;6.40;4.30;;;;;;;-5.75;74.86;99945.60;87546;271;23264;-75
2024/01/17 01:01:37;;;;;;;8.00;5.20;;;;;;;-5.79;75.06;99947.09;87306;273;136096;-76
2024/01/17 01:03:39;;;;;;;8.60;5.70;;;;;;;-5.81;74.92;99947.73;87644;278;22576;-74
2024/01/17 01:05:41;;;;;;;9.40;5.20;;;;;;;-5.83;75.05;99948.36;87387;272;136429;-73
2024/01/17 01:07:42;;;;;;;10.00;5.60;;;;;;;-5.81;75.18;99948.39;87387;279;25293;-72
2024/01/17 01:09:44;;;;;;;5.70;5.20;;;;;;;-5.78;75.15;99949.96;87365;268;136966;-73
2024/01/17 01:11:46;;;;;;;8.50;5.30;;;;;;;-5.72;75.38;99954.40;87643;279;22581;-75
2024/01/17 01:13:48;;;;;;;11.80;6.00;;;;;;;-5.70;75.02;99955.66;87446;268;136291;-74
2024/01/17 01:15:50;;;;;;;8.90;6.30;;;;;;;-5.74;75.13;99954.56;87556;264;22533;-73
2024/01/17 01:17:52;;;;;;;10.40;5.30;;;;;;;-5.83;75.65;99950.93;87489;272;136320;-74
2024/01/17 01:19:55;;;;;;;12.50;6.40;;;;;;;-5.93;75.70;99952.23;87449;272;24463;-73
2024/01/17 01:21:56;;;;;;;8.40;6.00;;;;;;;-5.99;76.07;99955.25;87425;272;136973;-73
2024/01/17 01:23:58;;;;;;;7.60;5.40;;;;;;;-6.07;76.59;99956.90;87528;272;22562;-75
2024/01/17 01:26:00;;;;;;;7.80;5.80;;;;;;;-6.17;76.46;99960.13;87441;272;135735;-74
2024/01/17 01:28:02;;;;;;;10.20;6.10;;;;;;;-6.30;76.85;99963.95;87399;273;23782;-74
2024/01/17 01:30:04;;;;;;;8.10;5.60;;;;;;;-6.39;77.16;99960.88;87672;271;22805;-75
2024/01/17 01:32:07;;;;;;;8.50;6.10;;;;;;;-6.47;77.56;99961.34;87495;267;136326;-74
2024/01/17 01:34:08;;;;;;;6.70;4.90;;;;;;;-6.54;77.98;99959.68;87412;272;22911;-74
2024/01/17 01:36:11;;;;;;;11.80;6.40;;;;;;;-6.61;78.12;99960.75;87382;272;137404;-75
2024/01/17 01:38:13;;;;;;;9.50;5.60;;;;;;;-6.67;78.58;99965.23;87453;277;25183;-74
2024/01/17 01:40:15;;;;;;;9.50;5.90;;;;;;;-6.70;78.95;99964.89;87416;272;136426;-74
2024/01/17 01:42:17;;;;;;;9.50;5.80;;;;;;;-6.62;78.49;99969.12;87659;278;24010;-72
2024/01/17 01:44:19;;;;;;;9.70;4.60;;;;;;;-6.53;78.33;99971.20;87489;267;138525;-72
2024/01/17 01:46:26;;;;;;;7.20;4.50;;;;;;;-6.46;78.20;99975.77;87535;267;22565;-73
2024/01/17 01:48:28;;;;;;;6.30;5.30;;;;;;;-6.40;77.78;99976.33;87505;271;137486;-74
2024/01/17 01:50:30;;;;;;;10.40;6.20;;;;;;;-6.36;77.63;99976.92;87745;271;22566;-74
2024/01/17 01:52:38;;;;;;;8.60;5.10;;;;;;;-6.31;77.64;99983.59;87490;279;137162;-74
2024/01/17 01:54:40;;;;;;;7.40;5.00;;;;;;;-6.24;77.15;99991.30;87654;279;22560;-75
2024/01/17 01:56:42;;;;;;;9.60;5.70;;;;;;;-6.23;77.34;99993.16;87482;267;137413;-73
2024/01/17 01:58:48;;;;;;;5.70;4.40;;;;;;;-6.18;77.40;99997.38;87463;273;22570;-74
2024/01/17 02:00:54;;;;;;;4.70;4.20;;;;;;;-6.14;77.39;100000.02;87585;276;136501;-75
2024/01/17 02:02:56;;;;;;;6.60;4.60;;;;;;;-6.10;77.31;100004.15;87610;268;22759;-74
2024/01/17 02:05:01;;;;;;;7.40;4.50;;;;;;;-6.07;77.11;100002.91;87422;271;136760;-76
2024/01/17 02:07:03;;;;;;;9.30;6.10;;;;;;;-5.98;76.64;99999.68;87732;271;24033;-75
2024/01/17 02:09:06;;;;;;;9.60;5.80;;;;;;;-6.00;76.60;99999.95;87452;271;135607;-76
2024/01/17 02:11:08;;;;;;;10.10;6.60;;;;;;;-6.03;76.74;99999.91;87622;271;25044;-75
2024/01/17 02:13:10;;;;;;;10.40;6.50;;;;;;;-6.03;76.19;100006.16;87451;276;136962;-75
2024/01/17 02:15:12;;;;;;;12.70;6.50;;;;;;;-6.10;75.81;100004.82;87476;279;22584;-75
2024/01/17 02:17:14;;;;;;;8.90;6.30;;;;;;;-6.19;75.88;100008.99;87390;280;136313;-72
2024/01/17 02:19:17;;;;;;;9.90;6.00;;;;;;;-6.28;76.22;100012.81;87552;272;22569;-73
2024/01/17 02:21:19;;;;;;;10.90;5.80;;;;;;;-6.35;76.37;100017.34;87353;268;136015;-73
2024/01/17 02:23:25;;;;;;;12.30;7.30;;;;;;;-6.41;76.58;100019.95;87511;273;25124;-74
2024/01/17 02:25:28;;;;;;;11.10;6.40;;;;;;;-6.46;76.81;100023.86;87353;269;137566;-72
2024/01/17 02:27:30;;;;;;;11.60;6.30;;;;;;;-6.50;76.98;100030.30;87572;272;22529;-73
2024/01/17 02:29:32;;;;;;;12.90;7.00;;;;;;;-6.52;77.05;100032.52;87494;275;137292;-73
2024/01/17 02:31:35;;;;;;;9.20;5.20;;;;;;;-6.55;77.14;100029.19;87570;271;24027;-73
2024/01/17 02:33:37;;;;;;;9.20;5.20;;;;;;;-6.48;77.31;100027.95;87632;271;136902;-73
2024/01/17 02:35:40;;;;;;;10.60;5.30;;;;;;;-6.40;76.81;100024.25;87577;271;22587;-74
2024/01/17 02:37:42;;;;;;;9.00;5.50;;;;;;;-6.40;76.88;100028.17;87446;279;138116;-73
2024/01/17 02:39:44;;;;;;;11.70;6.00;;;;;;;-6.40;77.04;100031.33;87401;279;22574;-74
2024/01/17 02:41:46;;;;;;;6.10;5.40;;;;;;;-6.41;77.09;100029.14;87304;268;137854;-72
2024/01/17 02:43:48;;;;;;;8.80;6.20;;;;;;;-6.41;77.44;100029.48;87585;276;23896;-73
2024/01/17 02:45:50;;;;;;;8.90;6.20;;;;;;;-6.40;77.33;100030.95;87367;272;136614;-76
2024/01/17 02:47:52;;;;;;;5.90;4.20;;;;;;;-6.38;77.14;100034.80;87345;271;23735;-74
2024/01/17 02:49:54;;;;;;;9.70;5.10;;;;;;;-6.37;77.19;100035.64;87335;268;136468;-74
2024/01/17 02:51:56;;;;;;;9.50;5.10;;;;;;;-6.36;77.32;100036.60;87464;279;22565;-74
2024/01/17 02:53:57;;;;;;;9.70;5.80;;;;;;;-6.35;77.07;100043.29;87139;268;136393;-75
2024/01/17 02:55:59;;;;;;;13.70;7.70;;;;;;;-6.35;77.17;100050.25;87409;279;22601;-73
2024/01/17 02:58:01;;;;;;;10.00;5.70;;;;;;;-6.36;77.07;100049.92;87366;273;22590;-74
2024/01/17 03:00:05;;;;;;;8.20;6.50;;;;;;;-6.38;76.98;100057.78;87263;268;136966;-74
2024/01/17 03:02:07;;;;;;;9.40;6.30;;;;;;;-6.41;76.90;100060.23;88828;265;22561;-76
2024/01/17 03:04:10;;;;;;;9.80;6.10;;;;;;;-6.39;76.76;100063.40;87495;271;137989;-75
2024/01/17 03:06:11;;;;;;;10.80;6.80;;;;;;;-6.38;77.16;100062.69;87595;263;22568;-77
2024/01/17 03:08:13;;;;;;;10.20;6.00;;;;;;;-6.37;77.28;100063.66;87457;267;137985;-74
2024/01/17 03:10:15;;;;;;;11.70;7.00;;;;;;;-6.41;77.18;100062.98;87518;271;25207;-75
2024/01/17 03:12:19;;;;;;;18.20;7.90;;;;;;;-6.42;77.23;100061.85;87390;278;138149;-72
2024/01/17 03:14:21;;;;;;;16.20;7.70;;;;;;;-6.44;77.38;100063.88;87726;271;24039;-74
2024/01/17 03:16:23;;;;;;;12.30;6.70;;;;;;;-6.41;77.54;100070.42;87593;275;137880;-74
2024/01/17 03:18:25;;;;;;;13.90;8.40;;;;;;;-6.36;77.50;100072.73;87464;272;23365;-73
2024/01/17 03:20:27;;;;;;;13.70;7.50;;;;;;;-6.34;77.48;100074.86;87468;279;137030;-74
2024/01/17 03:22:28;;;;;;;10.10;7.50;;;;;;;-6.37;77.21;100076.96;87518;272;25102;-72
2024/01/17 03:24:30;;;;;;;18.90;7.10;;;;;;;-6.44;77.23;100076.13;87527;272;138221;-72
2024/01/17 03:26:32;;;;;;;12.10;7.30;;;;;;;-6.49;77.42;100078.28;87572;278;22566;-71
2024/01/17 03:28:34;;;;;;;9.20;6.30;;;;;;;-6.51;77.40;100078.93;87468;271;138111;-73
2024/01/17 03:30:36;;;;;;;9.90;5.80;;;;;;;-6.53;77.27;100077.99;87356;268;22562;-73
2024/01/17 03:32:38;;;;;;;9.40;7.30;;;;;;;-6.53;77.57;100074.59;87125;280;137745;-73
2024/01/17 03:34:40;;;;;;;10.70;7.00;;;;;;;-6.51;77.91;100078.05;87351;280;22567;-74
2024/01/17 03:36:42;;;;;;;12.70;7.80;;;;;;;-6.44;77.82;100079.07;87387;272;137755;-75
2024/01/17 03:38:44;;;;;;;6.70;4.90;;;;;;;-6.37;77.60;100082.14;87351;281;22574;-75
2024/01/17 03:40:46;;;;;;;14.10;6.60;;;;;;;-6.33;77.23;100083.16;87229;268;138942;-74
2024/01/17 03:42:48;;;;;;;13.00;7.50;;;;;;;-6.33;77.28;100087.80;87446;279;22642;-75
2024/01/17 03:44:50;;;;;;;17.90;8.70;;;;;;;-6.30;77.34;100091.42;87428;275;137774;-72
2024/01/17 03:46:52;;;;;;;13.40;8.90;;;;;;;-6.24;77.30;100092.29;87616;275;25233;-73
2024/01/17 03:48:53;;;;;;;13.50;7.50;;;;;;;-6.18;77.10;100090.24;87523;279;137879;-72
2024/01/17 03:50:55;;;;;;;21.30;10.20;;;;;;;-6.21;77.04;100094.75;87431;279;22576;-75
2024/01/17 03:52:57;;;;;;;14.20;8.00;;;;;;;-6.32;77.29;100095.86;87286;267;136920;-73
2024/01/17 03:54:59;;;;;;;14.30;7.80;;;;;;;-6.36;77.51;100098.16;87390;279;25216;-74
2024/01/17 03:57:01;;;;;;;12.60;8.40;;;;;;;-6.42;77.52;100097.63;87337;271;136123;-73
2024/01/17 03:59:05;;;;;;;15.40;7.70;;;;;;;-6.50;77.87;100099.59;87537;275;25112;-73
2024/01/17 04:01:11;;;;;;;14.70;9.60;;;;;;;-6.57;77.84;100104.34;87553;266;138221;-72
2024/01/17 04:03:13;;;;;;;18.30;8.60;;;;;;;-6.63;78.04;100102.93;87516;273;24862;-70
2024/01/17 04:05:19;;;;;;;11.10;7.10;;;;;;;-6.69;78.41;100107.91;87484;279;137135;-72
2024/01/17 04:07:22;;;;;;;11.30;7.10;;;;;;;-6.76;78.80;100106.59;87435;279;25092;-74
2024/01/17 04:09:24;;;;;;;12.00;7.80;;;;;;;-6.87;78.88;100105.44;87494;271;136467;-72
2024/01/17 04:11:26;;;;;;;13.30;7.60;;;;;;;-6.95;79.15;100108.63;87508;279;25290;-74
2024/01/17 04:13:28;;;;;;;14.40;8.60;;;;;;;-7.01;79.47;100109.15;87364;264;136376;-74
2024/01/17 04:15:29;;;;;;;15.70;8.00;;;;;;;-6.96;79.63;100112.70;87477;268;25217;-74
2024/01/17 04:17:31;;;;;;;13.10;8.10;;;;;;;-6.90;79.57;100112.31;87460;263;136888;-74
2024/01/17 04:19:33;;;;;;;14.00;9.10;;;;;;;-6.84;79.33;100115.67;87559;279;22587;-72
2024/01/17 04:21:36;;;;;;;12.50;8.10;;;;;;;-6.80;79.31;100119.10;87418;271;136890;-73
2024/01/17 04:23:38;;;;;;;16.00;9.40;;;;;;;-6.80;79.32;100124.09;87482;271;22656;-73
2024/01/17 04:25:41;;;;;;;15.50;10.00;;;;;;;-6.79;79.51;100123.02;87397;271;138087;-72
2024/01/17 04:27:43;;;;;;;14.40;9.10;;;;;;;-6.78;79.65;100125.89;87495;267;22588;-73
2024/01/17 04:29:45;;;;;;;13.80;9.10;;;;;;;-6.79;79.80;100121.27;87588;271;136770;-73
2024/01/17 04:31:48;;;;;;;12.00;8.70;;;;;;;-6.81;80.12;100122.58;87572;279;22590;-73
2024/01/17 04:33:51;;;;;;;14.20;9.50;;;;;;;-6.86;80.39;100125.96;87344;267;137249;-73
2024/01/17 04:35:53;;;;;;;19.90;10.80;;;;;;;-6.90;80.45;100127.18;87530;279;22646;-73
2024/01/17 04:37:55;;;;;;;16.40;11.50;;;;;;;-6.93;80.31;100129.06;87350;268;137075;-74
2024/01/17 04:39:57;;;;;;;17.30;12.50;;;;;;;-6.91;80.16;100132.98;87520;271;22559;-73
2024/01/17 04:42:00;;;;;;;17.90;12.00;;;;;;;-6.88;80.45;100138.98;87484;267;136826;-73
2024/01/17 04:44:02;;;;;;;15.70;11.50;;;;;;;-6.85;80.53;100141.94;87555;263;22633;-73
2024/01/17 04:46:04;;;;;;;20.40;12.90;;;;;;;-6.80;80.55;100147.59;87612;274;22575;-73
2024/01/17 04:48:07;;;;;;;17.80;11.90;;;;;;;-6.78;80.52;100150.59;87468;278;137189;-72
2024/01/17 04:50:12;;;;;;;15.70;12.40;;;;;;;-6.76;80.34;100154.63;87539;280;22765;-74
2024/01/17 04:52:16;;;;;;;20.60;12.20;;;;;;;-6.77;80.34;100158.30;87320;264;137407;-73
2024/01/17 04:54:18;;;;;;;16.40;11.30;;;;;;;-6.76;80.54;100162.43;87544;264;22645;-73
2024/01/17 04:56:20;;;;;;;19.70;11.90;;;;;;;-6.77;80.22;100162.32;87407;268;137299;-73
2024/01/17 04:58:22;;;;;;;15.10;11.30;;;;;;;-6.79;80.04;100169.80;87256;273;25152;-74
2024/01/17 05:00:24;;;;;;;14.60;12.00;;;;;;;-6.75;80.07;100177.39;87245;271;137189;-74
2024/01/17 05:02:26;;;;;;;17.40;12.50;;;;;;;-6.71;79.86;100185.64;87434;268;24183;-73
2024/01/17 05:04:28;;;;;;;30.30;20.00;;;;;;;-6.72;79.62;100185.34;87316;271;138177;-74
2024/01/17 05:06:32;;;;;;;37.70;20.20;;;;;;;-6.75;79.48;100190.70;87512;266;25230;-73
2024/01/17 05:08:34;;;;;;;39.50;21.80;;;;;;;-6.88;79.57;100192.27;87595;267;137140;-73
2024/01/17 05:10:36;;;;;;;29.30;20.20;;;;;;;-6.97;79.70;100196.48;87462;269;22573;-73
2024/01/17 05:12:38;;;;;;;28.50;18.20;;;;;;;-6.99;80.09;100194.02;87463;271;136983;-73
2024/01/17 05:14:40;;;;;;;25.30;16.20;;;;;;;-6.95;80.32;100196.40;87361;272;23918;-74
2024/01/17 05:16:42;;;;;;;21.90;15.60;;;;;;;-6.91;80.17;100188.74;87509;279;140886;-71
2024/01/17 05:18:44;;;;;;;22.40;14.50;;;;;;;-6.86;80.17;100190.23;87190;267;24004;-72
2024/01/17 05:20:47;;;;;;;20.40;13.20;;;;;;;-6.78;80.15;100194.17;87733;264;137620;-71
2024/01/17 05:22:49;;;;;;;19.10;12.80;;;;;;;-6.72;80.17;100198.11;87119;267;24001;-71
2024/01/17 05:24:51;;;;;;;15.20;9.70;;;;;;;-6.66;79.73;100203.16;87102;267;137146;-76
2024/01/17 05:26:53;;;;;;;15.70;9.30;;;;;;;-6.65;79.44;100208.31;87715;278;23184;-75
2024/01/17 05:28:55;;;;;;;14.40;8.40;;;;;;;-6.65;79.38;100210.71;87554;271;136857;-74
2024/01/17 05:30:56;;;;;;;18.30;10.50;;;;;;;-6.63;79.51;100218.03;87645;267;22579;-76
2024/01/17 05:32:58;;;;;;;16.60;8.90;;;;;;;-6.62;79.42;100215.23;87194;264;137019;-70
2024/01/17 05:35:00;;;;;;;14.10;9.20;;;;;;;-6.62;79.45;100225.13;87147;272;22818;-69
2024/01/17 05:37:03;;;;;;;15.40;10.70;;;;;;;-6.62;79.28;100228.52;87109;271;138452;-72
2024/01/17 05:39:04;;;;;;;18.10;10.60;;;;;;;-6.62;78.72;100236.16;87234;278;22561;-69
2024/01/17 05:41:06;;;;;;;19.00;11.50;;;;;;;-6.67;78.59;100235.90;87187;267;136992;-69
2024/01/17 05:43:08;;;;;;;14.30;10.40;;;;;;;-6.70;78.80;100242.93;87701;266;25134;-71
2024/01/17 05:45:10;;;;;;;14.90;10.80;;;;;;;-6.71;78.84;100248.55;87096;279;137365;-70
2024/01/17 05:47:13;;;;;;;16.20;10.40;;;;;;;-6.78;79.26;100248.20;87829;272;22608;-70
2024/01/17 05:49:15;;;;;;;19.20;11.40;;;;;;;-6.87;79.31;100254.23;87189;271;136454;-68
2024/01/17 05:51:17;;;;;;;17.10;10.50;;;;;;;-6.96;79.58;100256.77;87257;279;22604;-73
2024/01/17 05:53:19;;;;;;;15.30;9.90;;;;;;;-7.02;80.06;100265.36;87085;268;136499;-70
2024/01/17 05:55:21;;;;;;;16.30;10.70;;;;;;;-7.10;80.15;100273.00;87078;268;22562;-69
2024/01/17 05:57:23;;;;;;;18.80;10.50;;;;;;;-7.16;80.45;100279.35;86860;275;136376;-73
2024/01/17 05:59:25;;;;;;;16.10;9.00;;;;;;;-7.23;80.58;100284.52;87096;267;22557;-69
2024/01/17 06:01:27;;;;;;;14.90;10.40;;;;;;;-7.26;80.89;100289.83;86842;273;136432;-69
2024/01/17 06:03:28;;;;;;;16.50;9.40;;;;;;;-7.29;80.77;100296.04;87063;271;24028;-72
2024/01/17 06:05:31;;;;;;;18.10;10.10;;;;;;;-7.36;80.96;100301.38;87099;279;136154;-69
2024/01/17 06:07:33;;;;;;;16.60;10.70;;;;;;;-7.37;80.92;100303.69;87223;271;25322;-69
2024/01/17 06:09:35;;;;;;;16.30;10.40;;;;;;;-7.29;80.75;100305.55;86918;271;138897;-68
2024/01/17 06:11:37;;;;;;;20.30;12.30;;;;;;;-7.23;80.67;100308.88;87452;280;25122;-72
2024/01/17 06:13:38;;;;;;;17.30;10.50;;;;;;;-7.17;80.55;100306.54;87201;268;197412;-68
2024/01/17 06:15:40;;;;;;;16.00;10.50;;;;;;;-7.13;80.79;100302.67;87056;275;26211;-72
2024/01/17 06:17:42;;;;;;;14.30;9.40;;;;;;;-7.08;80.67;100305.02;87415;268;138134;-72
2024/01/17 06:19:44;;;;;;;16.80;11.10;;;;;;;-7.03;80.55;100309.96;86868;273;25154;-69
2024/01/17 06:21:46;;;;;;;13.00;8.50;;;;;;;-6.98;80.24;100309.52;87322;279;137207;-70
2024/01/17 06:23:48;;;;;;;19.60;11.60;;;;;;;-6.97;79.53;100308.97;87129;267;22575;-69
2024/01/17 06:25:50;;;;;;;14.90;9.70;;;;;;;-6.96;80.02;100308.03;87635;272;137368;-71
2024/01/17 06:27:52;;;;;;;11.60;7.50;;;;;;;-6.89;80.15;100308.38;87593;278;23908;-70
2024/01/17 06:29:54;;;;;;;17.80;10.50;;;;;;;-6.78;80.18;100313.36;87401;269;137715;-72
2024/01/17 06:31:56;;;;;;;10.30;7.90;;;;;;;-6.68;80.13;100318.04;87664;269;22547;-73
2024/01/17 06:33:58;;;;;;;14.60;10.40;;;;;;;-6.62;79.36;100324.81;87098;275;136846;-69
2024/01/17 06:36:00;;;;;;;16.50;10.20;;;;;;;-6.56;79.23;100330.92;87252;275;22642;-69
2024/01/17 06:38:02;;;;;;;11.00;7.90;;;;;;;-6.51;79.12;100332.02;87480;268;138523;-70
2024/01/17 06:40:05;;;;;;;13.90;9.10;;;;;;;-6.45;78.91;100336.23;86921;273;137482;-70
2024/01/17 06:42:07;;;;;;;18.00;10.70;;;;;;;-6.41;78.58;100336.74;87239;275;24043;-70
2024/01/17 06:44:10;;;;;;;14.00;8.90;;;;;;;-6.38;78.27;100344.71;87049;267;137530;-70
2024/01/17 06:46:13;;;;;;;18.70;12.60;;;;;;;-6.37;78.01;100349.27;87225;271;22571;-75
2024/01/17 06:48:15;;;;;;;14.50;8.30;;;;;;;-6.34;77.91;100354.13;87074;271;137428;-70
2024/01/17 06:50:18;;;;;;;17.30;9.90;;;;;;;-6.32;77.70;100356.65;87137;263;22744;-69
2024/01/17 06:52:21;;;;;;;19.10;10.50;;;;;;;-6.30;77.70;100356.20;87702;271;137023;-69
2024/01/17 06:54:23;;;;;;;23.90;10.40;;;;;;;-6.25;77.98;100359.21;87115;271;22656;-71
2024/01/17 06:56:25;;;;;;;14.70;9.10;;;;;;;-6.19;77.93;100356.14;87480;280;138064;-69
2024/01/17 06:58:27;;;;;;;20.80;12.40;;;;;;;-6.15;77.37;100362.83;87234;279;24039;-71
2024/01/17 07:00:28;;;;;;;20.40;12.60;;;;;;;-6.12;77.51;100361.45;87432;272;137370;-69
2024/01/17 07:02:35;;;;;;;14.90;10.70;;;;;;;-6.15;77.32;100360.95;87038;271;22598;-71
2024/01/17 07:04:40;;;;;;;14.80;9.20;;;;;;;-6.21;77.24;100364.38;87172;267;136367;-68
2024/01/17 07:06:43;;;;;;;17.70;10.60;;;;;;;-6.27;77.24;100368.33;87199;271;23889;-71
2024/01/17 07:08:46;;;;;;;15.00;11.70;;;;;;;-6.34;77.42;100370.41;87122;275;137486;-69
2024/01/17 07:10:48;;;;;;;19.40;11.50;;;;;;;-6.40;77.68;100375.38;87233;267;25156;-69
2024/01/17 07:12:51;;;;;;;19.70;12.00;;;;;;;-6.48;78.16;100376.81;87562;273;136033;-69
2024/01/17 07:14:54;;;;;;;22.40;12.80;;;;;;;-6.56;78.47;100374.80;86903;273;22710;-71
2024/01/17 07:16:57;;;;;;;20.10;12.40;;;;;;;-6.58;78.96;100371.66;87215;271;137490;-68
2024/01/17 07:19:00;;;;;;;24.30;13.20;;;;;;;-6.63;78.96;100372.73;87104;271;22658;-72
2024/01/17 07:21:06;;;;;;;19.60;13.00;;;;;;;-6.67;78.76;100376.25;87139;271;136682;-70
2024/01/17 07:23:10;;;;;;;21.60;14.00;;;;;;;-6.73;78.77;100371.02;87301;267;22563;-71
2024/01/17 07:25:15;;;;;;;18.70;12.70;;;;;;;-6.77;79.10;100366.19;87507;275;137543;-70
2024/01/17 07:27:17;;;;;;;24.30;13.70;;;;;;;-6.77;79.43;100365.52;87064;269;25156;-70
2024/01/17 07:29:19;;;;;;;27.90;15.30;;;;;;;-6.73;78.98;100360.99;87099;278;137080;-72
2024/01/17 07:31:21;;;;;;;27.80;15.30;;;;;;;-6.63;79.03;100358.38;87174;271;22567;-70
2024/01/17 07:33:23;;;;;;;20.20;13.50;;;;;;;-6.50;79.10;100360.67;87097;271;137114;-72
2024/01/17 07:35:24;;;;;;;17.70;12.50;;;;;;;-6.41;79.17;100360.59;87679;271;22655;-68
2024/01/17 07:37:26;;;;;;;23.50;14.50;;;;;;;-6.35;78.87;100363.38;86952;275;137187;-69
2024/01/17 07:39:28;;;;;;;24.70;14.00;;;;;;;-6.30;79.03;100365.69;87097;271;22654;-71
2024/01/17 07:41:30;;;;;;;21.90;12.20;;;;;;;-6.21;78.92;100373.55;87015;271;137756;-71
2024/01/17 07:43:34;;;;;;;24.30;13.90;;;;;;;-6.17;78.51;100382.48;87284;279;22574;-69
2024/01/17 07:45:36;;;;;;;19.40;12.10;;;;;;;-6.15;78.34;100385.84;86953;273;137296;-68
2024/01/17 07:47:38;;;;;;;20.90;12.90;;;;;;;-6.13;77.63;100386.61;87013;275;24042;-70
2024/01/17 07:49:40;;;;;;;23.50;13.50;;;;;;;-6.11;77.62;100384.27;86923;271;137781;-70
2024/01/17 07:51:41;;;;;;;22.80;12.10;;;;;;;-6.07;78.06;100384.08;87245;273;25137;-70
2024/01/17 07:53:43;;;;;;;21.70;12.10;;;;;;;-5.97;78.00;100385.75;86934;272;138332;-69
2024/01/17 07:55:45;;;;;;;15.10;9.20;;;;;;;-5.88;77.41;100386.83;87096;271;22535;-70
2024/01/17 07:57:47;;;;;;;14.40;9.40;;;;;;;-5.79;76.76;100384.08;87521;267;138163;-69
2024/01/17 07:59:49;;;;;;;16.30;8.50;;;;;;;-5.70;76.87;100390.02;87232;279;25423;-71
2024/01/17 08:01:51;;;;;;;16.60;10.40;;;;;;;-5.69;76.30;100390.80;86978;273;136208;-71
2024/01/17 08:03:53;;;;;;;14.80;9.50;;;;;;;-5.74;75.85;100401.14;87099;263;22573;-70
2024/01/17 08:05:54;;;;;;;17.30;10.40;;;;;;;-5.78;76.05;100407.23;87385;271;136165;-70
2024/01/17 08:07:58;;;;;;;16.40;10.40;;;;;;;-5.80;76.42;100409.77;87500;279;22560;-70
2024/01/17 08:10:00;;;;;;;14.40;9.90;;;;;;;-5.81;76.63;100411.89;87526;279;136430;-67
2024/01/17 08:12:05;;;;;;;16.50;10.50;;;;;;;-5.81;76.58;100416.58;86933;271;137070;-68
2024/01/17 08:14:07;;;;;;;15.90;9.90;;;;;;;-5.82;76.18;100413.67;87102;280;22535;-72
2024/01/17 08:16:09;;;;;;;14.90;10.10;;;;;;;-5.82;76.38;100417.48;87206;264;138038;-69
2024/01/17 08:18:13;;;;;;;12.70;8.60;;;;;;;-5.85;76.25;100414.01;87169;275;22564;-69
2024/01/17 08:20:16;;;;;;;13.60;8.70;;;;;;;-5.83;76.59;100416.35;87121;267;136620;-68
2024/01/17 08:22:18;;;;;;;17.70;9.60;;;;;;;-5.82;76.87;100415.23;87505;271;22594;-68
2024/01/17 08:24:20;;;;;;;11.40;8.20;;;;;;;-5.81;76.88;100413.48;87090;279;136824;-70
2024/01/17 08:26:22;;;;;;;13.40;8.00;;;;;;;-5.78;76.93;100414.17;88646;267;22586;-71
2024/01/17 08:28:25;;;;;;;11.70;8.20;;;;;;;-5.76;76.65;100415.27;87060;279;136810;-70
2024/01/17 08:30:26;;;;;;;12.60;7.20;;;;;;;-5.75;77.01;100421.76;87204;279;22561;-73
2024/01/17 08:32:28;;;;;;;14.90;8.00;;;;;;;-5.75;76.54;100420.06;87246;267;136370;-71
2024/01/17 08:34:30;;;;;;;13.40;8.20;;;;;;;-5.81;76.16;100420.52;86954;273;23770;-71
2024/01/17 08:36:33;;;;;;;9.30;6.80;;;;;;;-5.87;76.23;100422.92;87045;273;136241;-74
2024/01/17 08:38:35;;;;;;;11.10;7.60;;;;;;;-5.90;76.71;100428.98;87701;271;22637;-71
2024/01/17 08:40:37;;;;;;;12.10;7.50;;;;;;;-5.88;76.98;100432.51;87109;271;138455;-70
2024/01/17 08:42:39;;;;;;;13.50;7.50;;;;;;;-5.84;76.94;100439.41;87014;279;24036;-69
2024/01/17 08:44:42;;;;;;;16.70;8.70;;;;;;;-5.74;76.67;100436.64;86935;271;136613;-72
2024/01/17 08:46:46;;;;;;;15.80;8.50;;;;;;;-5.75;76.77;100439.96;90036;267;22304;-70
2024/01/17 08:48:47;;;;;;;14.50;8.80;;;;;;;-5.71;76.84;100446.81;89955;263;137033;-72
2024/01/17 08:50:50;;;;;;;11.20;7.40;;;;;;;-5.67;76.72;100449.90;90055;267;22307;-68
2024/01/17 08:52:51;;;;;;;13.70;7.90;;;;;;;-5.60;76.94;100452.50;89928;267;136282;-72
2024/01/17 08:54:54;;;;;;;13.30;7.10;;;;;;;-5.55;76.28;100457.27;88701;277;24148;-70
2024/01/17 08:56:56;;;;;;;15.80;8.30;;;;;;;-5.55;76.28;100458.48;87055;273;136082;-68
2024/01/17 08:58:58;;;;;;;11.00;7.00;;;;;;;-5.54;76.29;100458.75;87135;279;23998;-70
2024/01/17 09:01:02;;;;;;;11.10;7.60;;;;;;;-5.50;76.23;100457.66;86833;272;136294;-71
2024/01/17 09:03:04;;;;;;;15.30;7.50;;;;;;;-5.43;76.02;100459.19;87542;271;22591;-69
2024/01/17 09:05:07;;;;;;;12.00;7.40;;;;;;;-5.37;75.94;100466.13;87659;279;136409;-69
2024/01/17 09:07:09;;;;;;;12.40;7.70;;;;;;;-5.35;75.38;100468.63;87651;278;24125;-70
2024/01/17 09:09:12;;;;;;;12.60;6.90;;;;;;;-5.32;75.43;100468.46;87158;279;136713;-70
2024/01/17 09:11:14;;;;;;;12.80;6.80;;;;;;;-5.31;74.70;100467.20;87060;271;22544;-70
2024/01/17 09:13:17;;;;;;;13.60;7.00;;;;;;;-5.35;74.44;100466.73;86896;279;136672;-71
2024/01/17 09:15:19;;;;;;;10.00;7.30;;;;;;;-5.34;74.33;100462.70;87061;273;22627;-69
2024/01/17 09:17:21;;;;;;;11.30;7.00;;;;;;;-5.34;74.06;100465.64;87734;271;137293;-68
2024/01/17 09:19:23;;;;;;;11.70;7.20;;;;;;;-5.34;73.89;100465.64;87115;275;24467;-71
2024/01/17 09:21:25;;;;;;;13.50;7.60;;;;;;;-5.31;74.28;100468.45;87124;287;136543;-70
2024/01/17 09:23:27;;;;;;;10.60;7.40;;;;;;;-5.29;73.93;100468.83;87136;267;22539;-69
2024/01/17 09:25:29;;;;;;;13.00;7.00;;;;;;;-5.31;73.80;100466.84;87120;267;136473;-67